createdAt,value
2018-12-31T00:01:50.898Z,100.00
2018-12-31T00:05:08.144Z,100.00
2018-12-31T00:08:15.391Z,100.00
2018-12-31T00:11:21.044Z,100.00
2018-12-31T00:14:26.688Z,100.00
2018-12-31T00:17:43.319Z,100.00
2018-12-31T00:20:50.569Z,100.00
2018-12-31T00:23:57.818Z,100.00
2018-12-31T00:27:03.434Z,100.00
2018-12-31T00:30:20.165Z,100.00
2018-12-31T00:33:27.297Z,100.00
2018-12-31T00:36:34.600Z,100.00
2018-12-31T00:39:51.280Z,100.00
2018-12-31T00:42:59.189Z,100.00
2018-12-31T00:46:06.562Z,100.00
2018-12-31T00:49:13.802Z,100.00
2018-12-31T00:52:21.028Z,100.00
2018-12-31T00:55:28.183Z,100.00
2018-12-31T00:58:35.433Z,100.00
2018-12-31T01:01:42.599Z,100.00
2018-12-31T01:04:48.686Z,100.00
2018-12-31T01:07:55.994Z,100.00
2018-12-31T01:11:03.243Z,100.00
2018-12-31T01:14:08.950Z,100.00
2018-12-31T01:17:16.111Z,100.00
2018-12-31T01:20:23.330Z,100.00
2018-12-31T01:23:30.476Z,100.00
2018-12-31T01:26:37.785Z,100.00
2018-12-31T01:29:54.470Z,100.00
2018-12-31T01:33:01.604Z,100.00
2018-12-31T01:36:08.847Z,100.00
2018-12-31T01:39:16.881Z,100.00
2018-12-31T01:42:24.124Z,100.00
2018-12-31T01:45:31.434Z,100.00
2018-12-31T01:48:38.786Z,100.00
2018-12-31T01:51:46.033Z,100.00
2018-12-31T01:54:53.348Z,100.00
2018-12-31T01:58:00.487Z,100.00
2018-12-31T02:01:07.804Z,100.00
2018-12-31T02:04:15.035Z,100.00
2018-12-31T02:07:22.283Z,100.00
2018-12-31T02:10:29.439Z,100.00
2018-12-31T02:13:36.672Z,100.00
2018-12-31T02:16:43.916Z,100.00
2018-12-31T02:19:51.162Z,100.00
2018-12-31T02:22:58.423Z,100.00
2018-12-31T02:26:05.151Z,100.00
2018-12-31T02:29:12.407Z,100.00
2018-12-31T02:32:19.645Z,100.00
2018-12-31T02:35:26.955Z,100.00
2018-12-31T02:38:34.218Z,100.00
2018-12-31T02:41:41.515Z,100.00
2018-12-31T02:44:48.830Z,100.00
2018-12-31T02:47:56.074Z,100.00
2018-12-31T02:51:03.316Z,100.00
2018-12-31T02:54:10.568Z,100.00
2018-12-31T02:57:27.328Z,100.00
2018-12-31T03:00:44.067Z,100.00
2018-12-31T03:03:51.262Z,100.00
2018-12-31T03:06:58.609Z,100.00
2018-12-31T03:10:15.293Z,100.00
2018-12-31T03:13:32.318Z,100.00
2018-12-31T03:16:48.800Z,100.00
2018-12-31T03:19:56.056Z,100.00
2018-12-31T03:23:03.188Z,100.00
2018-12-31T03:26:19.981Z,100.00
2018-12-31T03:29:27.286Z,100.00
2018-12-31T03:32:50.046Z,100.00
2018-12-31T03:35:57.186Z,100.00
2018-12-31T03:39:13.951Z,100.00
2018-12-31T03:42:21.268Z,100.00
2018-12-31T03:45:37.934Z,100.00
2018-12-31T03:48:45.182Z,100.00
2018-12-31T03:52:01.997Z,100.00
2018-12-31T03:55:18.697Z,100.00
2018-12-31T03:58:25.939Z,100.00
2018-12-31T04:01:33.607Z,100.00
2018-12-31T04:04:40.858Z,100.00
2018-12-31T04:07:52.994Z,100.00
2018-12-31T04:10:57.105Z,100.00
2018-12-31T04:14:04.709Z,100.00
2018-12-31T04:17:11.960Z,100.00
2018-12-31T04:20:19.277Z,100.00
2018-12-31T04:23:26.588Z,100.00
2018-12-31T04:26:33.908Z,100.00
2018-12-31T04:29:41.059Z,100.00
2018-12-31T04:32:48.295Z,100.00
2018-12-31T04:35:55.522Z,100.00
2018-12-31T04:39:04.707Z,100.00
2018-12-31T04:42:21.082Z,100.00
2018-12-31T04:45:37.881Z,100.00
2018-12-31T04:48:45.145Z,100.00
2018-12-31T04:51:52.709Z,100.00
2018-12-31T04:55:09.141Z,100.00
2018-12-31T04:58:25.859Z,100.00
2018-12-31T05:01:33.093Z,100.00
2018-12-31T05:04:40.238Z,100.00
2018-12-31T05:07:57.064Z,100.00
2018-12-31T05:11:04.598Z,100.00
2018-12-31T05:14:21.065Z,100.00
2018-12-31T05:17:28.629Z,100.00
2018-12-31T05:20:45.422Z,100.00
2018-12-31T05:24:01.812Z,100.00
2018-12-31T05:27:09.072Z,100.00
2018-12-31T05:30:16.388Z,100.00
2018-12-31T05:33:33.002Z,100.00
2018-12-31T05:36:40.259Z,100.00
2018-12-31T05:39:47.467Z,100.00
2018-12-31T05:42:54.781Z,100.00
2018-12-31T05:46:17.695Z,100.00
2018-12-31T05:49:34.280Z,100.00
2018-12-31T05:52:51.070Z,100.00
2018-12-31T05:56:07.792Z,100.00
2018-12-31T05:59:15.045Z,100.00
2018-12-31T06:02:31.835Z,100.00
2018-12-31T06:05:48.562Z,100.00
2018-12-31T06:08:55.775Z,100.00
2018-12-31T06:12:03.102Z,100.00
2018-12-31T06:15:19.828Z,100.00
2018-12-31T06:18:26.993Z,100.00
2018-12-31T06:21:34.219Z,100.00
2018-12-31T06:24:41.365Z,100.00
2018-12-31T06:27:48.681Z,100.00
2018-12-31T06:30:55.903Z,100.00
2018-12-31T06:34:12.542Z,100.00
2018-12-31T06:37:19.792Z,100.00
2018-12-31T06:40:28.585Z,100.00
2018-12-31T06:43:45.630Z,100.00
2018-12-31T06:47:02.164Z,100.00
2018-12-31T06:50:09.459Z,100.00
2018-12-31T06:53:26.119Z,100.00
2018-12-31T06:56:42.893Z,100.00
2018-12-31T06:59:50.385Z,100.00
2018-12-31T07:03:06.984Z,100.00
2018-12-31T07:06:14.302Z,100.00
2018-12-31T07:09:31.496Z,100.00
2018-12-31T07:12:48.004Z,100.00
2018-12-31T07:15:55.258Z,100.00
2018-12-31T07:19:11.978Z,100.00
2018-12-31T07:22:18.359Z,100.00
2018-12-31T07:25:25.624Z,100.00
2018-12-31T07:28:32.777Z,100.00
2018-12-31T07:31:40.065Z,100.00
2018-12-31T07:34:47.463Z,100.00
2018-12-31T07:37:54.787Z,100.00
2018-12-31T07:41:02.149Z,100.00
2018-12-31T07:44:09.369Z,100.00
2018-12-31T07:47:16.580Z,100.00
2018-12-31T07:50:23.034Z,100.00
2018-12-31T07:53:30.285Z,100.00
2018-12-31T07:56:37.535Z,100.00
2018-12-31T07:59:44.684Z,100.00
2018-12-31T08:02:51.913Z,100.00
2018-12-31T08:05:59.129Z,100.00
2018-12-31T08:09:07.255Z,100.00
2018-12-31T08:12:14.408Z,100.00
2018-12-31T08:15:21.903Z,100.00
2018-12-31T08:18:38.374Z,100.00
2018-12-31T08:21:45.707Z,100.00
2018-12-31T08:25:02.437Z,100.00
2018-12-31T08:28:19.233Z,100.00
2018-12-31T08:31:35.991Z,100.00
2018-12-31T08:34:43.236Z,100.00
2018-12-31T08:37:50.467Z,100.00
2018-12-31T08:40:57.916Z,100.00
2018-12-31T08:44:16.848Z,100.00
2018-12-31T08:47:24.092Z,100.00
2018-12-31T08:50:31.227Z,100.00
2018-12-31T08:53:38.834Z,100.00
2018-12-31T08:56:45.583Z,100.00
2018-12-31T08:59:51.127Z,100.00
2018-12-31T09:02:58.261Z,100.00
2018-12-31T09:06:10.328Z,100.00
2018-12-31T09:09:16.660Z,100.00
2018-12-31T09:12:23.816Z,100.00
2018-12-31T09:15:31.148Z,100.00
2018-12-31T09:18:38.541Z,100.00
2018-12-31T09:21:45.874Z,100.00
2018-12-31T09:24:53.422Z,100.00
2018-12-31T09:28:00.645Z,100.00
2018-12-31T09:31:07.961Z,100.00
2018-12-31T09:34:15.283Z,100.00
2018-12-31T09:37:20.829Z,100.00
2018-12-31T09:40:28.447Z,100.00
2018-12-31T09:43:44.832Z,100.00
2018-12-31T09:47:07.644Z,100.00
2018-12-31T09:50:24.505Z,100.00
2018-12-31T09:53:31.669Z,100.00
2018-12-31T09:56:51.058Z,100.00
2018-12-31T10:00:08.258Z,100.00
2018-12-31T10:03:15.497Z,100.00
2018-12-31T10:06:22.631Z,100.00
2018-12-31T10:09:29.949Z,100.00
2018-12-31T10:12:37.368Z,100.00
2018-12-31T10:15:44.175Z,100.00
2018-12-31T10:18:51.516Z,100.00
2018-12-31T10:21:59.051Z,100.00
2018-12-31T10:25:06.408Z,100.00
2018-12-31T10:28:13.743Z,100.00
2018-12-31T10:31:20.995Z,100.00
2018-12-31T10:34:29.765Z,100.00
2018-12-31T10:37:37.067Z,100.00
2018-12-31T10:40:44.418Z,100.00
2018-12-31T10:43:51.665Z,100.00
2018-12-31T10:57:15.048Z,100.00
2018-12-31T11:00:50.143Z,100.00
2018-12-31T11:04:12.807Z,100.00
2018-12-31T11:07:19.952Z,100.00
2018-12-31T11:10:27.278Z,100.00
2018-12-31T11:13:47.610Z,100.00
2018-12-31T11:17:21.932Z,100.00
2018-12-31T11:20:38.756Z,100.00
2018-12-31T11:24:05.669Z,100.00
2018-12-31T11:27:12.928Z,100.00
2018-12-31T11:30:20.065Z,100.00
2018-12-31T11:33:27.392Z,100.00
2018-12-31T11:36:33.479Z,100.00
2018-12-31T11:39:50.303Z,100.00
2018-12-31T11:43:06.874Z,100.00
2018-12-31T11:46:23.691Z,100.00
2018-12-31T11:49:40.372Z,100.00
2018-12-31T11:52:47.781Z,100.00
2018-12-31T11:56:10.127Z,100.00
2018-12-31T12:38:56.571Z,100.00
2018-12-31T12:42:03.874Z,100.00
2018-12-31T12:45:22.653Z,100.00
2018-12-31T12:48:39.254Z,100.00
2018-12-31T12:51:56.405Z,100.00
2018-12-31T12:55:12.913Z,100.00
2018-12-31T12:58:29.643Z,100.00
2018-12-31T13:01:36.874Z,100.00
2018-12-31T13:04:44.434Z,100.00
2018-12-31T13:08:00.893Z,100.00
2018-12-31T13:11:17.767Z,100.00
2018-12-31T13:14:40.829Z,100.00
2018-12-31T13:17:57.370Z,100.00
2018-12-31T13:21:14.005Z,100.00
2018-12-31T13:24:21.353Z,100.00
2018-12-31T13:27:38.009Z,100.00
2018-12-31T13:30:54.845Z,100.00
2018-12-31T13:34:11.569Z,100.00
2018-12-31T13:37:18.807Z,100.00
2018-12-31T13:40:26.032Z,100.00
2018-12-31T13:43:33.203Z,100.00
2018-12-31T13:46:49.941Z,100.00
2018-12-31T13:49:57.075Z,100.00
2018-12-31T13:53:04.260Z,100.00
2018-12-31T13:56:11.479Z,100.00
2018-12-31T13:59:18.779Z,100.00
2018-12-31T14:02:35.543Z,100.00
2018-12-31T14:05:42.775Z,100.00
2018-12-31T14:08:50.012Z,100.00
2018-12-31T14:12:08.514Z,100.00
2018-12-31T14:15:24.845Z,100.00
2018-12-31T14:18:30.475Z,100.00
2018-12-31T14:21:38.027Z,100.00
2018-12-31T14:24:54.450Z,100.00
2018-12-31T14:28:01.674Z,100.00
2018-12-31T14:31:09.067Z,100.00
2018-12-31T14:34:25.890Z,100.00
2018-12-31T14:37:42.621Z,100.00
2018-12-31T14:40:49.851Z,100.00
2018-12-31T14:44:06.717Z,100.00
2018-12-31T14:47:23.567Z,100.00
2018-12-31T14:50:40.385Z,100.00
2018-12-31T14:53:57.080Z,100.00
2018-12-31T14:57:04.386Z,100.00
2018-12-31T15:00:21.062Z,100.00
2018-12-31T15:03:37.903Z,100.00
2018-12-31T15:06:54.636Z,100.00
2018-12-31T15:10:01.930Z,100.00
2018-12-31T15:13:18.608Z,100.00
2018-12-31T15:16:25.815Z,100.00
2018-12-31T15:19:33.042Z,100.00
2018-12-31T15:22:40.277Z,100.00
2018-12-31T15:25:47.411Z,100.00
2018-12-31T15:28:54.641Z,100.00
2018-12-31T15:32:11.471Z,100.00
2018-12-31T15:35:28.861Z,100.00
2018-12-31T15:38:36.267Z,100.00
2018-12-31T15:41:43.764Z,100.00
2018-12-31T15:44:51.273Z,100.00
2018-12-31T15:47:58.695Z,100.00
2018-12-31T15:51:15.917Z,100.00
2018-12-31T15:54:32.128Z,100.00
2018-12-31T15:57:39.477Z,100.00
2018-12-31T16:00:46.606Z,100.00
2018-12-31T16:04:03.393Z,100.00
2018-12-31T16:07:09.528Z,100.00
2018-12-31T16:10:16.679Z,100.00
2018-12-31T16:13:24.583Z,100.00
2018-12-31T16:16:31.858Z,100.00
2018-12-31T16:19:39.142Z,100.00
2018-12-31T16:22:47.185Z,100.00
2018-12-31T16:25:54.501Z,100.00
2018-12-31T16:29:01.816Z,100.00
2018-12-31T16:32:09.061Z,100.00
2018-12-31T16:35:16.292Z,100.00
2018-12-31T16:38:23.553Z,100.00
2018-12-31T16:41:30.689Z,100.00
2018-12-31T16:44:38.129Z,100.00
2018-12-31T16:47:45.351Z,100.00
2018-12-31T16:50:52.679Z,100.00
2018-12-31T16:53:59.812Z,100.00
2018-12-31T16:57:06.951Z,100.00
2018-12-31T17:00:14.331Z,100.00
2018-12-31T17:03:21.567Z,100.00
2018-12-31T17:06:38.526Z,100.00
2018-12-31T17:09:45.833Z,100.00
2018-12-31T17:13:02.511Z,100.00
2018-12-31T17:16:19.201Z,100.00
2018-12-31T17:19:26.335Z,100.00
2018-12-31T17:22:33.558Z,100.00
2018-12-31T17:25:40.784Z,100.00
2018-12-31T17:28:48.011Z,100.00
2018-12-31T17:31:55.256Z,100.00
2018-12-31T17:35:02.468Z,100.00
2018-12-31T17:38:19.166Z,100.00
2018-12-31T17:41:26.413Z,100.00
2018-12-31T17:44:34.643Z,100.00
2018-12-31T17:47:41.789Z,100.00
2018-12-31T17:50:49.008Z,100.00
2018-12-31T17:53:55.493Z,100.00
2018-12-31T17:57:11.953Z,100.00
2018-12-31T18:00:19.140Z,100.00
2018-12-31T18:03:35.913Z,100.00
2018-12-31T18:06:43.049Z,100.00
2018-12-31T18:09:59.894Z,100.00
2018-12-31T18:13:07.145Z,100.00
2018-12-31T18:16:14.275Z,100.00
2018-12-31T18:19:21.483Z,100.00
2018-12-31T18:22:28.620Z,100.00
2018-12-31T18:25:45.445Z,100.00
2018-12-31T18:28:52.679Z,100.00
2018-12-31T18:31:59.982Z,100.00
2018-12-31T18:35:16.712Z,100.00
2018-12-31T18:38:33.377Z,100.00
2018-12-31T18:41:50.225Z,100.00
2018-12-31T18:44:56.702Z,100.00
2018-12-31T18:48:04.036Z,100.00
2018-12-31T18:51:11.355Z,100.00
2018-12-31T18:54:18.588Z,100.00
2018-12-31T18:57:25.722Z,100.00
2018-12-31T19:00:32.847Z,100.00
2018-12-31T19:03:39.980Z,100.00
2018-12-31T19:06:47.225Z,100.00
2018-12-31T19:09:54.492Z,100.00
2018-12-31T19:13:01.733Z,100.00
2018-12-31T19:16:10.862Z,100.00
2018-12-31T19:19:18.098Z,100.00
2018-12-31T19:22:25.397Z,100.00
2018-12-31T19:25:32.544Z,100.00
2018-12-31T19:31:15.907Z,100.00
2018-12-31T19:34:23.152Z,100.00
2018-12-31T19:37:30.392Z,100.00
2018-12-31T19:40:36.558Z,100.00
2018-12-31T19:43:44.112Z,100.00
2018-12-31T19:46:51.430Z,100.00
2018-12-31T19:49:58.672Z,100.00
2018-12-31T19:53:06.118Z,100.00
2018-12-31T19:56:23.363Z,100.00
2018-12-31T19:59:40.387Z,100.00
2018-12-31T20:02:56.902Z,100.00
2018-12-31T20:06:04.207Z,100.00
2018-12-31T20:09:20.897Z,100.00
2018-12-31T20:12:26.523Z,100.00
2018-12-31T20:15:48.591Z,100.00
2018-12-31T20:19:01.685Z,100.00
2018-12-31T20:22:08.931Z,100.00
2018-12-31T20:25:16.159Z,100.00
2018-12-31T20:28:32.957Z,100.00
2018-12-31T20:31:40.093Z,100.00
2018-12-31T20:34:56.858Z,100.00
2018-12-31T20:38:04.400Z,100.00
2018-12-31T20:41:21.128Z,100.00
2018-12-31T20:44:37.734Z,100.00
2018-12-31T20:48:01.636Z,100.00
2018-12-31T20:51:03.960Z,100.00
2018-12-31T20:54:11.412Z,100.00
2018-12-31T20:57:18.639Z,100.00
2018-12-31T21:00:26.039Z,100.00
2018-12-31T21:03:33.174Z,100.00
2018-12-31T21:06:40.409Z,100.00
2018-12-31T21:09:47.947Z,100.00
2018-12-31T21:12:55.077Z,100.00
2018-12-31T21:16:02.451Z,100.00
2018-12-31T21:19:09.675Z,100.00
2018-12-31T21:22:16.923Z,100.00
2018-12-31T21:25:24.205Z,100.00
2018-12-31T21:28:40.883Z,100.00
2018-12-31T21:31:48.119Z,100.00
2018-12-31T21:35:05.349Z,100.00
2018-12-31T21:38:21.747Z,100.00
2018-12-31T21:41:38.521Z,100.00
2018-12-31T21:44:57.805Z,100.00
2018-12-31T21:48:05.008Z,100.00
2018-12-31T21:51:21.998Z,100.00
2018-12-31T21:54:29.232Z,100.00
2018-12-31T21:57:45.938Z,100.00
2018-12-31T22:00:53.292Z,100.00
2018-12-31T22:04:09.964Z,99.89
2018-12-31T22:07:17.423Z,99.68
2018-12-31T22:10:36.468Z,99.31
2018-12-31T22:13:43.979Z,98.81
2018-12-31T22:17:00.526Z,99.71
2018-12-31T22:20:20.091Z,99.52
2018-12-31T22:23:36.620Z,100.00
2018-12-31T22:26:53.347Z,100.00
2018-12-31T22:30:00.665Z,100.00
2018-12-31T22:33:07.873Z,100.00
2018-12-31T22:36:24.590Z,100.00
2018-12-31T22:39:41.333Z,100.00
2018-12-31T22:42:48.513Z,100.00
2018-12-31T22:45:55.668Z,100.00
2018-12-31T22:49:03.578Z,100.00
2018-12-31T22:52:10.889Z,100.00
2018-12-31T22:55:18.047Z,100.00
2018-12-31T22:58:25.331Z,100.00
2018-12-31T23:01:32.653Z,100.00
2018-12-31T23:04:40.201Z,100.00
2018-12-31T23:07:47.712Z,99.19
2018-12-31T23:10:54.915Z,98.47
2018-12-31T23:14:02.087Z,97.68
2018-12-31T23:17:11.627Z,98.86
2018-12-31T23:21:07.693Z,98.18
2018-12-31T23:24:14.946Z,98.17
2018-12-31T23:27:32.526Z,98.06
2018-12-31T23:30:38.338Z,96.97
2018-12-31T23:33:45.683Z,98.04
2018-12-31T23:36:53.053Z,98.18
2018-12-31T23:40:00.259Z,98.63
2018-12-31T23:43:07.588Z,99.19
2018-12-31T23:46:15.158Z,99.92
2018-12-31T23:49:22.394Z,99.73
2018-12-31T23:52:29.616Z,99.37
2018-12-31T23:55:36.857Z,99.95
2018-12-31T23:58:54.246Z,99.81
